sensor_id;sensor_type;location;lat;lon;timestamp;P1;durP1;ratioP1;P2;durP2;ratioP2
11425;SDS011;5769;47.998;7.788;2023-09-12T00:00:42;2.72;;;1.67;;
11425;SDS011;5769;47.998;7.788;2023-09-12T00:03:09;2.25;;;1.30;;
11425;SDS011;5769;47.998;7.788;2023-09-12T00:05:35;1.80;;;1.10;;
11425;SDS011;5769;47.998;7.788;2023-09-12T00:08:02;2.33;;;1.30;;
11425;SDS011;5769;47.998;7.788;2023-09-12T00:10:29;2.58;;;1.52;;
11425;SDS011;5769;47.998;7.788;2023-09-12T00:12:57;2.22;;;1.40;;
11425;SDS011;5769;47.998;7.788;2023-09-12T00:15:27;2.22;;;1.27;;
11425;SDS011;5769;47.998;7.788;2023-09-12T00:17:54;2.00;;;1.40;;
11425;SDS011;5769;47.998;7.788;2023-09-12T00:20:20;2.08;;;1.40;;
11425;SDS011;5769;47.998;7.788;2023-09-12T00:22:47;2.13;;;1.60;;
11425;SDS011;5769;47.998;7.788;2023-09-12T00:25:14;2.38;;;1.50;;
11425;SDS011;5769;47.998;7.788;2023-09-12T00:27:41;2.22;;;1.60;;
11425;SDS011;5769;47.998;7.788;2023-09-12T00:30:07;2.40;;;1.67;;
11425;SDS011;5769;47.998;7.788;2023-09-12T00:32:36;2.38;;;1.42;;
11425;SDS011;5769;47.998;7.788;2023-09-12T00:35:03;2.35;;;1.35;;
11425;SDS011;5769;47.998;7.788;2023-09-12T00:37:30;2.35;;;1.20;;
11425;SDS011;5769;47.998;7.788;2023-09-12T00:39:57;2.83;;;1.20;;
11425;SDS011;5769;47.998;7.788;2023-09-12T00:42:24;2.05;;;1.35;;
11425;SDS011;5769;47.998;7.788;2023-09-12T00:44:51;2.80;;;1.40;;
11425;SDS011;5769;47.998;7.788;2023-09-12T00:47:18;1.92;;;1.30;;
11425;SDS011;5769;47.998;7.788;2023-09-12T00:49:48;1.80;;;1.30;;
11425;SDS011;5769;47.998;7.788;2023-09-12T00:52:15;4.45;;;1.40;;
11425;SDS011;5769;47.998;7.788;2023-09-12T00:54:44;2.28;;;1.50;;
11425;SDS011;5769;47.998;7.788;2023-09-12T00:57:10;2.63;;;1.40;;
11425;SDS011;5769;47.998;7.788;2023-09-12T00:59:37;2.55;;;1.38;;
11425;SDS011;5769;47.998;7.788;2023-09-12T01:02:04;2.60;;;1.50;;
11425;SDS011;5769;47.998;7.788;2023-09-12T01:04:32;3.65;;;1.73;;
11425;SDS011;5769;47.998;7.788;2023-09-12T01:07:00;2.60;;;1.35;;
11425;SDS011;5769;47.998;7.788;2023-09-12T01:09:28;2.75;;;1.55;;
11425;SDS011;5769;47.998;7.788;2023-09-12T01:11:55;3.10;;;1.20;;
11425;SDS011;5769;47.998;7.788;2023-09-12T01:14:22;2.33;;;1.30;;
11425;SDS011;5769;47.998;7.788;2023-09-12T01:16:49;1.73;;;1.20;;
11425;SDS011;5769;47.998;7.788;2023-09-12T01:19:16;2.40;;;1.58;;
11425;SDS011;5769;47.998;7.788;2023-09-12T01:21:53;2.60;;;1.48;;
11425;SDS011;5769;47.998;7.788;2023-09-12T01:24:51;2.67;;;1.40;;
11425;SDS011;5769;47.998;7.788;2023-09-12T01:27:37;2.33;;;1.50;;
11425;SDS011;5769;47.998;7.788;2023-09-12T01:30:05;2.65;;;1.40;;
11425;SDS011;5769;47.998;7.788;2023-09-12T01:32:33;1.85;;;1.20;;
11425;SDS011;5769;47.998;7.788;2023-09-12T01:35:01;2.42;;;1.35;;
11425;SDS011;5769;47.998;7.788;2023-09-12T01:37:28;3.22;;;1.60;;
11425;SDS011;5769;47.998;7.788;2023-09-12T01:39:55;1.67;;;1.10;;
11425;SDS011;5769;47.998;7.788;2023-09-12T01:42:22;2.13;;;1.42;;
11425;SDS011;5769;47.998;7.788;2023-09-12T01:44:50;2.42;;;1.60;;
11425;SDS011;5769;47.998;7.788;2023-09-12T01:47:21;2.60;;;1.42;;
11425;SDS011;5769;47.998;7.788;2023-09-12T01:49:51;2.08;;;1.50;;
11425;SDS011;5769;47.998;7.788;2023-09-12T01:52:21;2.83;;;1.50;;
11425;SDS011;5769;47.998;7.788;2023-09-12T01:54:48;2.58;;;1.40;;
11425;SDS011;5769;47.998;7.788;2023-09-12T01:57:16;1.80;;;1.33;;
11425;SDS011;5769;47.998;7.788;2023-09-12T01:59:45;2.65;;;1.35;;
11425;SDS011;5769;47.998;7.788;2023-09-12T02:02:14;3.15;;;1.60;;
11425;SDS011;5769;47.998;7.788;2023-09-12T02:04:41;1.55;;;1.30;;
11425;SDS011;5769;47.998;7.788;2023-09-12T02:07:07;2.20;;;1.30;;
11425;SDS011;5769;47.998;7.788;2023-09-12T02:09:34;2.83;;;1.30;;
11425;SDS011;5769;47.998;7.788;2023-09-12T02:12:01;1.80;;;1.25;;
11425;SDS011;5769;47.998;7.788;2023-09-12T02:14:27;2.67;;;1.55;;
11425;SDS011;5769;47.998;7.788;2023-09-12T02:16:54;1.85;;;1.35;;
11425;SDS011;5769;47.998;7.788;2023-09-12T02:19:22;1.80;;;1.30;;
11425;SDS011;5769;47.998;7.788;2023-09-12T02:21:49;1.98;;;1.30;;
11425;SDS011;5769;47.998;7.788;2023-09-12T02:24:15;2.63;;;1.40;;
11425;SDS011;5769;47.998;7.788;2023-09-12T02:26:43;2.05;;;1.20;;
11425;SDS011;5769;47.998;7.788;2023-09-12T02:29:10;3.00;;;1.50;;
11425;SDS011;5769;47.998;7.788;2023-09-12T02:31:36;2.28;;;1.30;;
11425;SDS011;5769;47.998;7.788;2023-09-12T02:34:03;1.75;;;1.27;;
11425;SDS011;5769;47.998;7.788;2023-09-12T02:36:31;2.63;;;1.60;;
11425;SDS011;5769;47.998;7.788;2023-09-12T02:38:58;2.05;;;1.30;;
11425;SDS011;5769;47.998;7.788;2023-09-12T02:41:24;2.40;;;1.40;;
11425;SDS011;5769;47.998;7.788;2023-09-12T02:43:51;2.17;;;1.45;;
11425;SDS011;5769;47.998;7.788;2023-09-12T02:46:17;2.08;;;1.30;;
11425;SDS011;5769;47.998;7.788;2023-09-12T02:48:44;2.40;;;1.40;;
11425;SDS011;5769;47.998;7.788;2023-09-12T02:51:11;2.65;;;1.48;;
11425;SDS011;5769;47.998;7.788;2023-09-12T02:53:39;2.05;;;1.20;;
11425;SDS011;5769;47.998;7.788;2023-09-12T02:56:06;2.63;;;1.40;;
11425;SDS011;5769;47.998;7.788;2023-09-12T02:58:33;2.33;;;1.40;;
11425;SDS011;5769;47.998;7.788;2023-09-12T03:01:00;2.92;;;1.50;;
11425;SDS011;5769;47.998;7.788;2023-09-12T03:03:30;2.35;;;1.40;;
11425;SDS011;5769;47.998;7.788;2023-09-12T03:05:57;2.33;;;1.65;;
11425;SDS011;5769;47.998;7.788;2023-09-12T03:08:24;2.20;;;1.30;;
11425;SDS011;5769;47.998;7.788;2023-09-12T03:10:54;2.35;;;1.45;;
11425;SDS011;5769;47.998;7.788;2023-09-12T03:13:22;2.75;;;1.42;;
11425;SDS011;5769;47.998;7.788;2023-09-12T03:15:49;2.78;;;1.58;;
11425;SDS011;5769;47.998;7.788;2023-09-12T03:18:16;2.75;;;1.42;;
11425;SDS011;5769;47.998;7.788;2023-09-12T03:20:43;3.08;;;1.63;;
11425;SDS011;5769;47.998;7.788;2023-09-12T03:23:09;3.17;;;1.70;;
11425;SDS011;5769;47.998;7.788;2023-09-12T03:25:36;2.30;;;1.40;;
11425;SDS011;5769;47.998;7.788;2023-09-12T03:28:05;2.33;;;1.52;;
11425;SDS011;5769;47.998;7.788;2023-09-12T03:30:32;2.00;;;1.17;;
11425;SDS011;5769;47.998;7.788;2023-09-12T03:33:00;2.20;;;1.50;;
11425;SDS011;5769;47.998;7.788;2023-09-12T03:35:27;2.15;;;1.30;;
11425;SDS011;5769;47.998;7.788;2023-09-12T03:37:54;3.03;;;1.40;;
11425;SDS011;5769;47.998;7.788;2023-09-12T03:40:21;2.13;;;1.42;;
11425;SDS011;5769;47.998;7.788;2023-09-12T03:42:48;2.22;;;1.52;;
11425;SDS011;5769;47.998;7.788;2023-09-12T03:45:16;1.98;;;1.33;;
11425;SDS011;5769;47.998;7.788;2023-09-12T03:47:43;2.05;;;1.50;;
11425;SDS011;5769;47.998;7.788;2023-09-12T03:50:11;2.22;;;1.25;;
11425;SDS011;5769;47.998;7.788;2023-09-12T03:52:38;2.15;;;1.40;;
11425;SDS011;5769;47.998;7.788;2023-09-12T03:55:05;2.05;;;1.40;;
11425;SDS011;5769;47.998;7.788;2023-09-12T03:57:32;2.25;;;1.30;;
11425;SDS011;5769;47.998;7.788;2023-09-12T03:59:59;2.47;;;1.50;;
11425;SDS011;5769;47.998;7.788;2023-09-12T04:02:27;2.35;;;1.35;;
11425;SDS011;5769;47.998;7.788;2023-09-12T04:04:53;2.20;;;1.50;;
11425;SDS011;5769;47.998;7.788;2023-09-12T04:07:24;1.98;;;1.30;;
11425;SDS011;5769;47.998;7.788;2023-09-12T04:09:51;2.35;;;1.40;;
11425;SDS011;5769;47.998;7.788;2023-09-12T04:12:17;2.00;;;1.42;;
11425;SDS011;5769;47.998;7.788;2023-09-12T04:14:44;3.03;;;1.70;;
11425;SDS011;5769;47.998;7.788;2023-09-12T04:17:10;1.95;;;1.30;;
11425;SDS011;5769;47.998;7.788;2023-09-12T04:19:38;2.30;;;1.30;;
11425;SDS011;5769;47.998;7.788;2023-09-12T04:22:05;2.95;;;1.60;;
11425;SDS011;5769;47.998;7.788;2023-09-12T04:24:32;2.92;;;1.50;;
11425;SDS011;5769;47.998;7.788;2023-09-12T04:26:58;3.50;;;1.33;;
11425;SDS011;5769;47.998;7.788;2023-09-12T04:29:25;2.90;;;1.60;;
11425;SDS011;5769;47.998;7.788;2023-09-12T04:31:52;2.75;;;1.60;;
11425;SDS011;5769;47.998;7.788;2023-09-12T04:34:24;2.33;;;1.50;;
11425;SDS011;5769;47.998;7.788;2023-09-12T04:36:52;2.15;;;1.50;;
11425;SDS011;5769;47.998;7.788;2023-09-12T04:39:19;3.15;;;1.85;;
11425;SDS011;5769;47.998;7.788;2023-09-12T04:41:45;3.53;;;1.70;;
11425;SDS011;5769;47.998;7.788;2023-09-12T04:44:12;2.67;;;1.52;;
11425;SDS011;5769;47.998;7.788;2023-09-12T04:46:39;2.17;;;1.40;;
11425;SDS011;5769;47.998;7.788;2023-09-12T04:49:05;2.40;;;1.40;;
11425;SDS011;5769;47.998;7.788;2023-09-12T04:51:32;3.53;;;1.75;;
11425;SDS011;5769;47.998;7.788;2023-09-12T04:54:01;2.45;;;1.50;;
11425;SDS011;5769;47.998;7.788;2023-09-12T04:56:27;2.47;;;1.60;;
11425;SDS011;5769;47.998;7.788;2023-09-12T04:58:54;2.70;;;1.65;;
11425;SDS011;5769;47.998;7.788;2023-09-12T05:01:21;2.25;;;1.33;;
11425;SDS011;5769;47.998;7.788;2023-09-12T05:03:47;2.60;;;1.60;;
11425;SDS011;5769;47.998;7.788;2023-09-12T05:06:14;2.13;;;1.50;;
11425;SDS011;5769;47.998;7.788;2023-09-12T05:08:41;3.30;;;1.80;;
11425;SDS011;5769;47.998;7.788;2023-09-12T05:11:09;2.47;;;1.60;;
11425;SDS011;5769;47.998;7.788;2023-09-12T05:13:35;3.10;;;1.55;;
11425;SDS011;5769;47.998;7.788;2023-09-12T05:16:02;3.83;;;1.52;;
11425;SDS011;5769;47.998;7.788;2023-09-12T05:18:29;2.67;;;1.60;;
11425;SDS011;5769;47.998;7.788;2023-09-12T05:20:56;3.22;;;1.80;;
11425;SDS011;5769;47.998;7.788;2023-09-12T05:23:22;3.20;;;1.67;;
11425;SDS011;5769;47.998;7.788;2023-09-12T05:25:49;2.60;;;1.63;;
11425;SDS011;5769;47.998;7.788;2023-09-12T05:28:17;3.92;;;1.83;;
11425;SDS011;5769;47.998;7.788;2023-09-12T05:30:44;3.42;;;1.77;;
11425;SDS011;5769;47.998;7.788;2023-09-12T05:33:11;2.55;;;1.60;;
11425;SDS011;5769;47.998;7.788;2023-09-12T05:35:37;2.70;;;1.65;;
11425;SDS011;5769;47.998;7.788;2023-09-12T05:38:05;2.75;;;1.80;;
11425;SDS011;5769;47.998;7.788;2023-09-12T05:40:31;1.85;;;1.50;;
11425;SDS011;5769;47.998;7.788;2023-09-12T05:42:58;2.70;;;1.60;;
11425;SDS011;5769;47.998;7.788;2023-09-12T05:45:26;2.50;;;1.58;;
11425;SDS011;5769;47.998;7.788;2023-09-12T05:47:54;2.30;;;1.60;;
11425;SDS011;5769;47.998;7.788;2023-09-12T05:50:21;2.72;;;1.63;;
11425;SDS011;5769;47.998;7.788;2023-09-12T05:52:48;2.97;;;1.55;;
11425;SDS011;5769;47.998;7.788;2023-09-12T05:55:16;3.55;;;1.63;;
11425;SDS011;5769;47.998;7.788;2023-09-12T05:57:42;2.83;;;1.80;;
11425;SDS011;5769;47.998;7.788;2023-09-12T06:00:09;3.28;;;1.80;;
11425;SDS011;5769;47.998;7.788;2023-09-12T06:02:38;3.28;;;1.73;;
11425;SDS011;5769;47.998;7.788;2023-09-12T06:05:05;2.67;;;1.80;;
11425;SDS011;5769;47.998;7.788;2023-09-12T06:07:32;3.10;;;1.88;;
11425;SDS011;5769;47.998;7.788;2023-09-12T06:09:59;3.70;;;1.98;;
11425;SDS011;5769;47.998;7.788;2023-09-12T06:12:26;3.53;;;1.90;;
11425;SDS011;5769;47.998;7.788;2023-09-12T06:14:52;3.25;;;1.90;;
11425;SDS011;5769;47.998;7.788;2023-09-12T06:17:20;2.88;;;1.90;;
11425;SDS011;5769;47.998;7.788;2023-09-12T06:19:49;3.30;;;1.92;;
11425;SDS011;5769;47.998;7.788;2023-09-12T06:22:16;4.45;;;2.00;;
11425;SDS011;5769;47.998;7.788;2023-09-12T06:24:43;9.82;;;2.30;;
11425;SDS011;5769;47.998;7.788;2023-09-12T06:27:10;3.13;;;1.88;;
11425;SDS011;5769;47.998;7.788;2023-09-12T06:29:37;3.53;;;1.80;;
11425;SDS011;5769;47.998;7.788;2023-09-12T06:32:04;4.07;;;2.10;;
11425;SDS011;5769;47.998;7.788;2023-09-12T06:34:31;3.13;;;1.88;;
11425;SDS011;5769;47.998;7.788;2023-09-12T06:36:59;2.95;;;1.90;;
11425;SDS011;5769;47.998;7.788;2023-09-12T06:39:26;3.60;;;2.20;;
11425;SDS011;5769;47.998;7.788;2023-09-12T06:41:53;6.30;;;2.33;;
11425;SDS011;5769;47.998;7.788;2023-09-12T06:44:19;3.00;;;1.80;;
11425;SDS011;5769;47.998;7.788;2023-09-12T06:46:46;2.78;;;1.83;;
11425;SDS011;5769;47.998;7.788;2023-09-12T06:49:13;2.90;;;1.83;;
11425;SDS011;5769;47.998;7.788;2023-09-12T06:51:39;3.40;;;2.10;;
11425;SDS011;5769;47.998;7.788;2023-09-12T06:54:07;4.35;;;2.20;;
11425;SDS011;5769;47.998;7.788;2023-09-12T06:56:34;4.10;;;2.10;;
11425;SDS011;5769;47.998;7.788;2023-09-12T06:59:02;3.05;;;1.92;;
11425;SDS011;5769;47.998;7.788;2023-09-12T07:01:29;3.83;;;1.95;;
11425;SDS011;5769;47.998;7.788;2023-09-12T07:03:56;3.67;;;2.10;;
11425;SDS011;5769;47.998;7.788;2023-09-12T07:06:22;2.63;;;1.63;;
11425;SDS011;5769;47.998;7.788;2023-09-12T07:08:49;3.38;;;1.98;;
11425;SDS011;5769;47.998;7.788;2023-09-12T07:11:18;3.22;;;2.05;;
11425;SDS011;5769;47.998;7.788;2023-09-12T07:13:45;5.38;;;2.30;;
11425;SDS011;5769;47.998;7.788;2023-09-12T07:16:12;3.28;;;1.88;;
11425;SDS011;5769;47.998;7.788;2023-09-12T07:18:38;3.70;;;2.10;;
11425;SDS011;5769;47.998;7.788;2023-09-12T07:21:05;2.90;;;1.98;;
11425;SDS011;5769;47.998;7.788;2023-09-12T07:23:32;4.63;;;2.33;;
11425;SDS011;5769;47.998;7.788;2023-09-12T07:25:59;3.10;;;2.10;;
11425;SDS011;5769;47.998;7.788;2023-09-12T07:28:29;3.97;;;2.00;;
11425;SDS011;5769;47.998;7.788;2023-09-12T07:30:56;3.55;;;2.22;;
11425;SDS011;5769;47.998;7.788;2023-09-12T07:33:23;3.70;;;2.10;;
11425;SDS011;5769;47.998;7.788;2023-09-12T07:35:51;3.58;;;2.10;;
11425;SDS011;5769;47.998;7.788;2023-09-12T07:38:18;3.83;;;2.13;;
11425;SDS011;5769;47.998;7.788;2023-09-12T07:40:45;3.22;;;2.08;;
11425;SDS011;5769;47.998;7.788;2023-09-12T07:43:12;3.28;;;1.90;;
11425;SDS011;5769;47.998;7.788;2023-09-12T07:45:40;3.50;;;2.30;;
11425;SDS011;5769;47.998;7.788;2023-09-12T07:48:07;3.25;;;2.00;;
11425;SDS011;5769;47.998;7.788;2023-09-12T07:50:35;4.72;;;2.10;;
11425;SDS011;5769;47.998;7.788;2023-09-12T07:53:03;2.60;;;1.70;;
11425;SDS011;5769;47.998;7.788;2023-09-12T07:55:30;2.58;;;1.70;;
11425;SDS011;5769;47.998;7.788;2023-09-12T07:58:01;3.45;;;1.90;;
11425;SDS011;5769;47.998;7.788;2023-09-12T08:00:27;3.55;;;1.90;;
11425;SDS011;5769;47.998;7.788;2023-09-12T08:02:55;3.30;;;1.98;;
11425;SDS011;5769;47.998;7.788;2023-09-12T08:05:22;4.15;;;2.10;;
11425;SDS011;5769;47.998;7.788;2023-09-12T08:07:49;3.88;;;1.80;;
11425;SDS011;5769;47.998;7.788;2023-09-12T08:10:15;2.83;;;1.73;;
11425;SDS011;5769;47.998;7.788;2023-09-12T08:12:42;4.05;;;2.15;;
11425;SDS011;5769;47.998;7.788;2023-09-12T08:15:09;3.22;;;1.90;;
11425;SDS011;5769;47.998;7.788;2023-09-12T08:17:36;3.38;;;2.30;;
11425;SDS011;5769;47.998;7.788;2023-09-12T08:20:06;2.58;;;1.88;;
11425;SDS011;5769;47.998;7.788;2023-09-12T08:22:35;4.05;;;2.05;;
11425;SDS011;5769;47.998;7.788;2023-09-12T08:25:02;3.55;;;2.00;;
11425;SDS011;5769;47.998;7.788;2023-09-12T08:27:29;2.67;;;1.67;;
11425;SDS011;5769;47.998;7.788;2023-09-12T08:29:56;3.38;;;1.92;;
11425;SDS011;5769;47.998;7.788;2023-09-12T08:32:22;2.40;;;1.90;;
11425;SDS011;5769;47.998;7.788;2023-09-12T08:34:49;3.63;;;1.80;;
11425;SDS011;5769;47.998;7.788;2023-09-12T08:37:17;3.63;;;2.17;;
11425;SDS011;5769;47.998;7.788;2023-09-12T08:39:44;3.33;;;1.77;;
11425;SDS011;5769;47.998;7.788;2023-09-12T08:42:12;2.75;;;1.80;;
11425;SDS011;5769;47.998;7.788;2023-09-12T08:44:39;3.35;;;1.98;;
11425;SDS011;5769;47.998;7.788;2023-09-12T08:47:07;3.40;;;2.00;;
11425;SDS011;5769;47.998;7.788;2023-09-12T08:49:35;4.18;;;1.85;;
11425;SDS011;5769;47.998;7.788;2023-09-12T08:52:03;3.28;;;1.83;;
11425;SDS011;5769;47.998;7.788;2023-09-12T08:54:31;2.85;;;1.95;;
11425;SDS011;5769;47.998;7.788;2023-09-12T08:56:58;3.00;;;2.03;;
11425;SDS011;5769;47.998;7.788;2023-09-12T08:59:29;5.20;;;2.33;;
11425;SDS011;5769;47.998;7.788;2023-09-12T09:01:57;3.20;;;1.80;;
11425;SDS011;5769;47.998;7.788;2023-09-12T09:04:24;2.85;;;1.52;;
11425;SDS011;5769;47.998;7.788;2023-09-12T09:06:55;3.97;;;2.00;;
11425;SDS011;5769;47.998;7.788;2023-09-12T09:09:23;3.08;;;2.10;;
11425;SDS011;5769;47.998;7.788;2023-09-12T09:11:51;3.55;;;1.92;;
11425;SDS011;5769;47.998;7.788;2023-09-12T09:14:18;4.47;;;2.20;;
11425;SDS011;5769;47.998;7.788;2023-09-12T09:16:45;5.10;;;1.98;;
11425;SDS011;5769;47.998;7.788;2023-09-12T09:19:11;3.80;;;2.22;;
11425;SDS011;5769;47.998;7.788;2023-09-12T09:21:38;3.53;;;2.15;;
11425;SDS011;5769;47.998;7.788;2023-09-12T09:24:07;3.50;;;2.03;;
11425;SDS011;5769;47.998;7.788;2023-09-12T09:26:42;4.25;;;2.10;;
11425;SDS011;5769;47.998;7.788;2023-09-12T09:29:12;2.75;;;2.00;;
11425;SDS011;5769;47.998;7.788;2023-09-12T09:31:41;3.17;;;2.15;;
11425;SDS011;5769;47.998;7.788;2023-09-12T09:34:12;3.28;;;1.85;;
11425;SDS011;5769;47.998;7.788;2023-09-12T09:36:42;3.50;;;1.92;;
11425;SDS011;5769;47.998;7.788;2023-09-12T09:39:10;3.28;;;1.85;;
11425;SDS011;5769;47.998;7.788;2023-09-12T09:41:38;3.05;;;2.08;;
11425;SDS011;5769;47.998;7.788;2023-09-12T09:44:05;3.65;;;1.95;;
11425;SDS011;5769;47.998;7.788;2023-09-12T09:46:34;2.75;;;1.77;;
11425;SDS011;5769;47.998;7.788;2023-09-12T09:49:01;3.45;;;1.70;;
11425;SDS011;5769;47.998;7.788;2023-09-12T09:51:29;3.13;;;1.73;;
11425;SDS011;5769;47.998;7.788;2023-09-12T09:53:57;2.83;;;1.80;;
11425;SDS011;5769;47.998;7.788;2023-09-12T09:56:25;3.15;;;1.77;;
11425;SDS011;5769;47.998;7.788;2023-09-12T09:58:53;4.05;;;2.00;;
11425;SDS011;5769;47.998;7.788;2023-09-12T10:01:21;5.00;;;1.98;;
11425;SDS011;5769;47.998;7.788;2023-09-12T10:03:51;4.43;;;2.30;;
11425;SDS011;5769;47.998;7.788;2023-09-12T10:06:19;3.35;;;1.95;;
11425;SDS011;5769;47.998;7.788;2023-09-12T10:08:46;4.43;;;2.00;;
11425;SDS011;5769;47.998;7.788;2023-09-12T10:11:16;3.72;;;2.03;;
11425;SDS011;5769;47.998;7.788;2023-09-12T10:13:48;6.05;;;3.42;;
11425;SDS011;5769;47.998;7.788;2023-09-12T10:16:19;3.97;;;2.53;;
11425;SDS011;5769;47.998;7.788;2023-09-12T10:18:58;3.53;;;2.10;;
11425;SDS011;5769;47.998;7.788;2023-09-12T10:21:31;3.47;;;2.15;;
11425;SDS011;5769;47.998;7.788;2023-09-12T10:24:00;4.88;;;2.58;;
11425;SDS011;5769;47.998;7.788;2023-09-12T10:26:29;3.53;;;2.05;;
11425;SDS011;5769;47.998;7.788;2023-09-12T10:28:57;4.30;;;2.60;;
11425;SDS011;5769;47.998;7.788;2023-09-12T10:31:25;4.20;;;2.22;;
11425;SDS011;5769;47.998;7.788;2023-09-12T10:33:54;5.28;;;2.17;;
11425;SDS011;5769;47.998;7.788;2023-09-12T10:36:24;5.57;;;2.38;;
11425;SDS011;5769;47.998;7.788;2023-09-12T10:38:52;4.13;;;2.40;;
11425;SDS011;5769;47.998;7.788;2023-09-12T10:41:21;8.10;;;2.90;;
11425;SDS011;5769;47.998;7.788;2023-09-12T10:43:49;6.20;;;3.03;;
11425;SDS011;5769;47.998;7.788;2023-09-12T10:46:19;5.47;;;2.42;;
11425;SDS011;5769;47.998;7.788;2023-09-12T10:48:47;4.63;;;2.63;;
11425;SDS011;5769;47.998;7.788;2023-09-12T10:51:15;4.75;;;2.67;;
11425;SDS011;5769;47.998;7.788;2023-09-12T10:53:46;4.22;;;2.60;;
11425;SDS011;5769;47.998;7.788;2023-09-12T10:56:15;4.78;;;2.30;;
11425;SDS011;5769;47.998;7.788;2023-09-12T10:59:08;4.57;;;2.45;;
11425;SDS011;5769;47.998;7.788;2023-09-12T11:01:37;4.88;;;2.40;;
11425;SDS011;5769;47.998;7.788;2023-09-12T11:06:59;4.80;;;2.63;;
11425;SDS011;5769;47.998;7.788;2023-09-12T11:09:27;5.15;;;2.63;;
11425;SDS011;5769;47.998;7.788;2023-09-12T11:11:55;5.65;;;2.90;;
11425;SDS011;5769;47.998;7.788;2023-09-12T11:14:23;5.53;;;2.97;;
11425;SDS011;5769;47.998;7.788;2023-09-12T11:19:48;5.25;;;2.92;;
11425;SDS011;5769;47.998;7.788;2023-09-12T11:22:22;5.82;;;2.80;;
11425;SDS011;5769;47.998;7.788;2023-09-12T11:24:50;4.22;;;2.60;;
11425;SDS011;5769;47.998;7.788;2023-09-12T11:27:17;4.13;;;2.60;;
11425;SDS011;5769;47.998;7.788;2023-09-12T11:29:45;4.40;;;2.53;;
11425;SDS011;5769;47.998;7.788;2023-09-12T11:32:13;4.30;;;2.70;;
11425;SDS011;5769;47.998;7.788;2023-09-12T11:34:52;4.85;;;2.55;;
11425;SDS011;5769;47.998;7.788;2023-09-12T11:37:23;4.68;;;2.70;;
11425;SDS011;5769;47.998;7.788;2023-09-12T11:39:51;4.43;;;2.40;;
11425;SDS011;5769;47.998;7.788;2023-09-12T11:42:18;4.28;;;2.78;;
11425;SDS011;5769;47.998;7.788;2023-09-12T11:44:48;4.07;;;2.58;;
11425;SDS011;5769;47.998;7.788;2023-09-12T11:47:16;3.10;;;2.15;;
11425;SDS011;5769;47.998;7.788;2023-09-12T11:49:42;3.22;;;2.38;;
11425;SDS011;5769;47.998;7.788;2023-09-12T11:52:10;5.47;;;2.47;;
11425;SDS011;5769;47.998;7.788;2023-09-12T11:54:40;5.22;;;2.78;;
11425;SDS011;5769;47.998;7.788;2023-09-12T11:57:07;5.80;;;2.45;;
11425;SDS011;5769;47.998;7.788;2023-09-12T11:59:36;3.72;;;2.38;;
11425;SDS011;5769;47.998;7.788;2023-09-12T12:02:05;3.72;;;2.33;;
11425;SDS011;5769;47.998;7.788;2023-09-12T12:04:33;3.88;;;2.45;;
11425;SDS011;5769;47.998;7.788;2023-09-12T12:07:01;3.97;;;2.50;;
11425;SDS011;5769;47.998;7.788;2023-09-12T12:09:29;4.55;;;2.88;;
11425;SDS011;5769;47.998;7.788;2023-09-12T12:11:59;4.45;;;2.38;;
11425;SDS011;5769;47.998;7.788;2023-09-12T12:14:30;3.75;;;2.30;;
11425;SDS011;5769;47.998;7.788;2023-09-12T12:17:05;4.63;;;2.55;;
11425;SDS011;5769;47.998;7.788;2023-09-12T12:19:33;3.58;;;2.22;;
11425;SDS011;5769;47.998;7.788;2023-09-12T12:22:01;5.50;;;2.53;;
11425;SDS011;5769;47.998;7.788;2023-09-12T12:24:38;4.32;;;2.70;;
11425;SDS011;5769;47.998;7.788;2023-09-12T12:27:17;4.18;;;2.40;;
11425;SDS011;5769;47.998;7.788;2023-09-12T12:29:44;5.20;;;2.20;;
11425;SDS011;5769;47.998;7.788;2023-09-12T12:32:14;3.25;;;2.20;;
11425;SDS011;5769;47.998;7.788;2023-09-12T12:34:41;3.78;;;2.28;;
11425;SDS011;5769;47.998;7.788;2023-09-12T12:37:13;3.83;;;2.63;;
11425;SDS011;5769;47.998;7.788;2023-09-12T12:39:42;3.55;;;2.38;;
11425;SDS011;5769;47.998;7.788;2023-09-12T12:42:09;3.08;;;2.08;;
11425;SDS011;5769;47.998;7.788;2023-09-12T12:44:41;3.83;;;2.50;;
11425;SDS011;5769;47.998;7.788;2023-09-12T12:47:10;3.58;;;2.30;;
11425;SDS011;5769;47.998;7.788;2023-09-12T12:49:38;5.30;;;2.47;;
11425;SDS011;5769;47.998;7.788;2023-09-12T12:52:05;4.05;;;2.47;;
11425;SDS011;5769;47.998;7.788;2023-09-12T12:54:35;3.95;;;2.35;;
11425;SDS011;5769;47.998;7.788;2023-09-12T12:57:01;4.25;;;2.45;;
11425;SDS011;5769;47.998;7.788;2023-09-12T12:59:28;4.10;;;2.67;;
11425;SDS011;5769;47.998;7.788;2023-09-12T13:02:01;3.97;;;2.50;;
11425;SDS011;5769;47.998;7.788;2023-09-12T13:04:28;3.55;;;2.25;;
11425;SDS011;5769;47.998;7.788;2023-09-12T13:07:03;3.88;;;2.55;;
11425;SDS011;5769;47.998;7.788;2023-09-12T13:09:30;4.97;;;2.65;;
11425;SDS011;5769;47.998;7.788;2023-09-12T13:11:57;3.90;;;2.42;;
11425;SDS011;5769;47.998;7.788;2023-09-12T13:14:24;3.75;;;2.40;;
11425;SDS011;5769;47.998;7.788;2023-09-12T13:16:55;4.30;;;2.60;;
11425;SDS011;5769;47.998;7.788;2023-09-12T13:19:24;4.28;;;2.70;;
11425;SDS011;5769;47.998;7.788;2023-09-12T13:21:50;3.80;;;2.50;;
11425;SDS011;5769;47.998;7.788;2023-09-12T13:24:17;4.40;;;2.53;;
11425;SDS011;5769;47.998;7.788;2023-09-12T13:26:44;3.72;;;2.38;;
11425;SDS011;5769;47.998;7.788;2023-09-12T13:29:10;5.22;;;2.33;;
11425;SDS011;5769;47.998;7.788;2023-09-12T13:31:37;4.55;;;2.80;;
11425;SDS011;5769;47.998;7.788;2023-09-12T13:34:04;4.22;;;2.67;;
11425;SDS011;5769;47.998;7.788;2023-09-12T13:36:32;4.10;;;2.47;;
11425;SDS011;5769;47.998;7.788;2023-09-12T13:38:58;4.97;;;2.33;;
11425;SDS011;5769;47.998;7.788;2023-09-12T13:41:25;4.45;;;2.50;;
11425;SDS011;5769;47.998;7.788;2023-09-12T13:43:52;4.97;;;2.60;;
11425;SDS011;5769;47.998;7.788;2023-09-12T13:46:19;5.07;;;2.60;;
11425;SDS011;5769;47.998;7.788;2023-09-12T13:48:46;4.47;;;2.60;;
11425;SDS011;5769;47.998;7.788;2023-09-12T13:51:12;5.68;;;2.45;;
11425;SDS011;5769;47.998;7.788;2023-09-12T13:53:40;3.50;;;2.35;;
11425;SDS011;5769;47.998;7.788;2023-09-12T13:56:07;4.32;;;2.50;;
11425;SDS011;5769;47.998;7.788;2023-09-12T13:58:34;5.75;;;2.70;;
11425;SDS011;5769;47.998;7.788;2023-09-12T14:01:00;3.95;;;2.22;;
11425;SDS011;5769;47.998;7.788;2023-09-12T14:03:28;4.25;;;2.78;;
11425;SDS011;5769;47.998;7.788;2023-09-12T14:05:55;3.67;;;2.10;;
11425;SDS011;5769;47.998;7.788;2023-09-12T14:08:21;4.25;;;2.50;;
11425;SDS011;5769;47.998;7.788;2023-09-12T14:10:49;3.95;;;2.25;;
11425;SDS011;5769;47.998;7.788;2023-09-12T14:13:16;4.22;;;2.40;;
11425;SDS011;5769;47.998;7.788;2023-09-12T14:15:42;4.28;;;2.60;;
11425;SDS011;5769;47.998;7.788;2023-09-12T14:18:11;4.28;;;2.65;;
11425;SDS011;5769;47.998;7.788;2023-09-12T14:20:38;3.92;;;2.38;;
11425;SDS011;5769;47.998;7.788;2023-09-12T14:23:04;6.43;;;2.60;;
11425;SDS011;5769;47.998;7.788;2023-09-12T14:25:31;4.40;;;2.65;;
11425;SDS011;5769;47.998;7.788;2023-09-12T14:27:59;4.45;;;2.65;;
11425;SDS011;5769;47.998;7.788;2023-09-12T14:30:26;4.30;;;2.50;;
11425;SDS011;5769;47.998;7.788;2023-09-12T14:32:59;3.75;;;2.40;;
11425;SDS011;5769;47.998;7.788;2023-09-12T14:35:26;4.18;;;2.45;;
11425;SDS011;5769;47.998;7.788;2023-09-12T14:37:53;4.00;;;2.40;;
11425;SDS011;5769;47.998;7.788;2023-09-12T14:40:20;3.47;;;2.50;;
11425;SDS011;5769;47.998;7.788;2023-09-12T14:42:46;4.38;;;2.42;;
11425;SDS011;5769;47.998;7.788;2023-09-12T14:45:14;3.90;;;2.60;;
11425;SDS011;5769;47.998;7.788;2023-09-12T14:47:41;3.50;;;2.28;;
11425;SDS011;5769;47.998;7.788;2023-09-12T14:50:08;4.20;;;2.60;;
11425;SDS011;5769;47.998;7.788;2023-09-12T14:52:35;4.63;;;2.60;;
11425;SDS011;5769;47.998;7.788;2023-09-12T14:55:03;3.65;;;2.75;;
11425;SDS011;5769;47.998;7.788;2023-09-12T14:57:30;3.97;;;2.78;;
11425;SDS011;5769;47.998;7.788;2023-09-12T14:59:57;3.95;;;2.20;;
11425;SDS011;5769;47.998;7.788;2023-09-12T15:02:26;3.10;;;2.03;;
11425;SDS011;5769;47.998;7.788;2023-09-12T15:04:56;4.10;;;2.10;;
11425;SDS011;5769;47.998;7.788;2023-09-12T15:07:23;3.63;;;2.20;;
11425;SDS011;5769;47.998;7.788;2023-09-12T15:09:50;4.28;;;2.70;;